Time;durP1;ratioP1;P1;durP2;ratioP2;P2;SDS_P1;SDS_P2;PMS_P1;PMS_P2;Temp;Humidity;BMP_temperature;BMP_pressure;BME280_temperature;BME280_humidity;BME280_pressure;Samples;Min_cycle;Max_cycle;Signal;HPM_P1;HPM_P2
2023/01/07 00:04:26;;;;;;;0.73;0.73;;;;;;;8.70;89.21;100321.34;10532129;28;20044;-81
2023/01/07 00:09:28;;;;;;;1.27;0.68;;;;;;;8.72;89.42;100323.06;10533082;28;20527;-79
2023/01/07 00:14:29;;;;;;;0.60;0.50;;;;;;;8.82;87.93;100321.97;10551577;28;20044;-79
2023/01/07 00:19:31;;;;;;;1.27;0.60;;;;;;;8.77;88.64;100330.81;10552882;28;20048;-80
2023/01/07 00:24:33;;;;;;;0.77;0.55;;;;;;;8.68;89.90;100315.28;10551988;28;20105;-80
2023/01/07 00:29:35;;;;;;;1.08;0.60;;;;;;;8.67;91.38;100318.75;10552954;28;20560;-79
2023/01/07 00:34:37;;;;;;;1.08;0.70;;;;;;;8.79;92.18;100302.81;10552475;28;20059;-79
2023/01/07 00:39:39;;;;;;;0.75;0.68;;;;;;;8.64;94.21;100300.50;10552792;28;20051;-80
2023/01/07 00:44:42;;;;;;;0.57;0.57;;;;;;;8.56;94.48;100304.13;10550815;28;20040;-80
2023/01/07 00:49:45;;;;;;;0.93;0.70;;;;;;;8.56;93.80;100298.88;10531755;28;20051;-80
2023/01/07 00:54:47;;;;;;;0.70;0.70;;;;;;;8.55;94.04;100306.78;10549665;28;20040;-80
2023/01/07 00:59:49;;;;;;;1.20;0.70;;;;;;;8.58;93.78;100298.84;10530897;28;20048;-80
2023/01/07 01:04:50;;;;;;;0.65;0.65;;;;;;;8.49;94.20;100294.66;10531256;28;20044;-80
2023/01/07 01:09:52;;;;;;;0.75;0.68;;;;;;;8.61;93.63;100304.03;10531829;28;20051;-80
2023/01/07 01:14:54;;;;;;;1.17;0.68;;;;;;;8.57;95.53;100310.22;10549371;28;20048;-80
2023/01/07 01:19:56;;;;;;;0.68;0.68;;;;;;;8.63;97.92;100307.47;10530922;28;20394;-79
2023/01/07 01:24:57;;;;;;;1.02;0.93;;;;;;;8.52;100.00;100302.44;10548804;28;20051;-80
2023/01/07 01:30:01;;;;;;;1.48;0.70;;;;;;;8.41;100.00;100304.44;10530596;28;20101;-80
2023/01/07 01:35:04;;;;;;;0.80;0.80;;;;;;;8.33;100.00;100301.91;10531972;28;20060;-80
2023/01/07 01:40:07;;;;;;;1.10;0.88;;;;;;;8.27;100.00;100303.75;10535269;28;20044;-80
2023/01/07 01:45:10;;;;;;;1.52;1.08;;;;;;;8.28;100.00;100302.91;10562943;28;20074;-79
2023/01/07 01:50:29;;;;;;;1.23;0.60;;;;;;;8.32;100.00;100300.19;10518050;28;20044;-79
2023/01/07 01:55:47;;;;;;;1.00;0.80;;;;;;;8.33;100.00;100306.28;10534981;28;20036;-80
2023/01/07 02:00:50;;;;;;;0.65;0.63;;;;;;;8.50;100.00;100300.75;10538117;28;20040;-80
2023/01/07 02:05:53;;;;;;;2.13;0.70;;;;;;;8.54;98.95;100292.81;10536432;28;20036;-79
2023/01/07 02:11:26;;;;;;;0.50;0.50;;;;;;;8.56;98.35;100290.16;10554823;28;20125;-79
2023/01/07 02:16:27;;;;;;;0.50;0.40;;;;;;;8.57;98.59;100284.03;10554327;28;20032;-80
2023/01/07 02:21:39;;;;;;;0.82;0.60;;;;;;;8.70;96.65;100275.03;10554084;28;20055;-79
2023/01/07 02:27:11;;;;;;;1.55;0.60;;;;;;;8.81;95.91;100264.34;10542809;28;20036;-80
2023/01/07 02:32:42;;;;;;;1.35;0.60;;;;;;;8.78;96.30;100256.53;10541586;28;20046;-80
2023/01/07 02:37:58;;;;;;;0.80;0.70;;;;;;;8.76;96.71;100263.53;10541016;28;20044;-80
2023/01/07 02:43:10;;;;;;;1.15;0.60;;;;;;;8.73;96.75;100251.38;10534331;28;20047;-80
2023/01/07 02:48:16;;;;;;;0.47;0.47;;;;;;;8.75;96.03;100251.34;10516780;28;20477;-80
2023/01/07 02:53:19;;;;;;;1.52;0.55;;;;;;;8.76;95.50;100253.91;10533907;28;20044;-79
2023/01/07 02:58:46;;;;;;;0.60;0.60;;;;;;;8.73;94.70;100254.00;10535089;28;20094;-79
2023/01/07 03:04:11;;;;;;;0.63;0.50;;;;;;;8.78;94.13;100259.16;10533346;28;20055;-80
2023/01/07 03:09:30;;;;;;;0.50;0.50;;;;;;;8.70;94.55;100250.59;10516127;28;20044;-79
2023/01/07 03:14:45;;;;;;;0.50;0.50;;;;;;;8.58;94.84;100256.91;10515837;28;20416;-80
2023/01/07 03:19:53;;;;;;;0.60;0.60;;;;;;;8.36;96.34;100269.53;10550422;28;20064;-79
2023/01/07 03:24:56;;;;;;;0.55;0.40;;;;;;;8.24;95.72;100269.78;10532809;28;20147;-79
2023/01/07 03:30:02;;;;;;;0.73;0.70;;;;;;;8.16;96.15;100256.84;10551644;28;20111;-79
2023/01/07 03:35:06;;;;;;;0.40;0.40;;;;;;;7.87;97.90;100261.72;10514403;28;20039;-79
2023/01/07 03:40:10;;;;;;;0.57;0.40;;;;;;;8.03;96.47;100261.41;10531694;28;20071;-79
2023/01/07 03:45:18;;;;;;;1.08;0.55;;;;;;;8.02;95.55;100251.00;10532511;28;20040;-80
2023/01/07 03:50:21;;;;;;;0.40;0.40;;;;;;;7.99;94.71;100254.50;10530709;28;20139;-79
2023/01/07 03:55:24;;;;;;;0.30;0.30;;;;;;;7.89;95.51;100257.31;10530661;28;20094;-79
2023/01/07 04:00:28;;;;;;;0.40;0.40;;;;;;;7.75;95.97;100249.72;10549409;28;20039;-79
2023/01/07 04:05:42;;;;;;;0.70;0.43;;;;;;;7.66;96.43;100247.22;10537536;22;20071;-82
2023/01/07 04:10:45;;;;;;;0.65;0.50;;;;;;;7.82;94.86;100236.47;10507125;28;20069;-83
2023/01/07 04:15:47;;;;;;;0.40;0.40;;;;;;;7.80;94.60;100235.66;10501409;28;20068;-83
2023/01/07 04:20:49;;;;;;;0.60;0.60;;;;;;;7.80;94.29;100232.19;10500221;28;20094;-82
2023/01/07 04:25:51;;;;;;;0.40;0.40;;;;;;;7.86;93.36;100229.44;10500026;28;20112;-83
2023/01/07 04:31:00;;;;;;;0.70;0.50;;;;;;;7.66;94.74;100224.56;10485401;28;20049;-82
2023/01/07 04:36:04;;;;;;;0.40;0.40;;;;;;;7.61;94.95;100217.66;10499764;28;20036;-82
2023/01/07 04:41:06;;;;;;;0.55;0.30;;;;;;;7.51;96.19;100216.97;10502365;28;20040;-82
2023/01/07 04:46:08;;;;;;;1.15;0.40;;;;;;;7.73;94.27;100218.31;10520786;28;20041;-82
2023/01/07 04:51:10;;;;;;;0.50;0.40;;;;;;;7.87;93.31;100223.31;10495492;28;20056;-82
2023/01/07 04:56:12;;;;;;;0.28;0.28;;;;;;;8.03;92.16;100218.69;10504176;28;20052;-82
2023/01/07 05:01:14;;;;;;;0.55;0.40;;;;;;;8.04;91.98;100212.53;10540629;28;20044;-82
2023/01/07 05:06:17;;;;;;;0.47;0.47;;;;;;;8.12;91.64;100215.03;10527283;28;20063;-82
2023/01/07 05:11:20;;;;;;;0.40;0.40;;;;;;;8.11;91.05;100208.06;10527043;28;20060;-82
2023/01/07 05:16:25;;;;;;;1.98;0.40;;;;;;;8.03;91.54;100208.19;10531187;28;20112;-82
2023/01/07 05:21:28;;;;;;;0.43;0.40;;;;;;;7.95;92.38;100203.09;10534475;28;20059;-82
2023/01/07 05:26:30;;;;;;;0.40;0.40;;;;;;;7.87;92.86;100202.38;10549607;28;20077;-81
2023/01/07 05:31:31;;;;;;;0.40;0.40;;;;;;;7.82;93.04;100191.13;10534252;28;20060;-81
2023/01/07 05:36:33;;;;;;;0.68;0.40;;;;;;;7.68;93.90;100204.47;10538483;28;20044;-82
2023/01/07 05:41:37;;;;;;;0.85;0.52;;;;;;;7.71;93.41;100206.16;10505353;28;20452;-82
2023/01/07 05:46:40;;;;;;;1.08;0.73;;;;;;;7.71;93.60;100200.94;10505002;28;20051;-83
2023/01/07 05:51:42;;;;;;;1.13;0.80;;;;;;;7.73;93.65;100201.75;10524914;28;20051;-82
2023/01/07 05:56:43;;;;;;;0.90;0.75;;;;;;;7.74;93.83;100203.47;10524176;28;20079;-82
2023/01/07 06:01:45;;;;;;;1.20;0.80;;;;;;;7.71;93.79;100203.56;10522239;28;20048;-82
2023/01/07 06:06:47;;;;;;;1.13;0.70;;;;;;;7.69;94.42;100211.41;10522241;28;20071;-81
2023/01/07 06:11:48;;;;;;;0.90;0.63;;;;;;;7.61;94.84;100205.44;10521966;28;20129;-83
2023/01/07 06:16:50;;;;;;;0.70;0.70;;;;;;;7.71;94.36;100198.31;10521621;28;20041;-83
2023/01/07 06:21:52;;;;;;;0.80;0.80;;;;;;;7.82;93.24;100198.97;10527045;28;20040;-82
2023/01/07 06:26:53;;;;;;;0.50;0.50;;;;;;;7.82;93.12;100199.84;10539832;28;20044;-82
2023/01/07 06:31:55;;;;;;;0.40;0.40;;;;;;;8.02;91.73;100201.25;10522811;28;20073;-82
2023/01/07 06:36:56;;;;;;;0.40;0.40;;;;;;;7.86;92.80;100191.94;10540869;28;20048;-83
2023/01/07 06:41:58;;;;;;;0.50;0.40;;;;;;;7.82;93.92;100199.84;10519494;28;20053;-82
2023/01/07 06:47:00;;;;;;;0.30;0.30;;;;;;;8.00;92.27;100203.88;10532606;28;20066;-83
2023/01/07 06:52:01;;;;;;;0.30;0.30;;;;;;;8.13;91.40;100206.28;10494693;28;20074;-84
2023/01/07 06:57:03;;;;;;;1.17;0.40;;;;;;;7.90;93.52;100204.94;10508833;28;20078;-83
2023/01/07 07:02:05;;;;;;;0.40;0.32;;;;;;;8.06;93.12;100211.63;10528377;28;20100;-83
2023/01/07 07:07:07;;;;;;;0.40;0.40;;;;;;;8.14;92.97;100205.38;10525997;28;20048;-83
2023/01/07 07:12:09;;;;;;;0.50;0.40;;;;;;;8.14;94.77;100208.84;10528193;28;20083;-84
2023/01/07 07:17:11;;;;;;;0.60;0.50;;;;;;;8.18;95.16;100207.91;10524843;28;20041;-83
2023/01/07 07:22:12;;;;;;;0.50;0.50;;;;;;;8.02;96.73;100209.09;10506913;28;20061;-83
2023/01/07 07:27:14;;;;;;;1.23;0.60;;;;;;;7.98;96.76;100210.91;10507427;28;20056;-83
2023/01/07 07:32:16;;;;;;;0.68;0.57;;;;;;;8.01;96.98;100210.88;10490137;28;20458;-81
2023/01/07 07:37:17;;;;;;;1.05;0.70;;;;;;;7.92;97.82;100211.00;10508842;28;20090;-81
2023/01/07 07:42:19;;;;;;;1.48;1.02;;;;;;;8.16;96.13;100214.06;10507079;28;20074;-82
2023/01/07 07:47:22;;;;;;;1.75;1.20;;;;;;;8.16;95.43;100212.31;10507110;28;20067;-81
2023/01/07 07:52:24;;;;;;;0.80;0.80;;;;;;;8.19;94.33;100203.53;10523927;28;20098;-82
2023/01/07 07:57:26;;;;;;;0.93;0.90;;;;;;;8.11;93.65;100202.84;10506842;28;20040;-81
2023/01/07 08:02:27;;;;;;;2.83;1.70;;;;;;;8.29;94.20;100211.19;10520376;28;20052;-79
2023/01/07 08:07:29;;;;;;;1.00;0.90;;;;;;;8.35;91.54;100210.19;10540052;28;20067;-81
2023/01/07 08:12:37;;;;;;;1.40;0.95;;;;;;;8.18;93.90;100199.19;10525905;28;20104;-81
2023/01/07 08:17:39;;;;;;;1.50;1.30;;;;;;;8.63;91.41;100199.19;10515818;28;20044;-82
2023/01/07 08:22:41;;;;;;;2.42;1.63;;;;;;;8.30;92.12;100202.44;10515326;28;20036;-82
2023/01/07 08:27:42;;;;;;;1.48;1.38;;;;;;;8.47;92.10;100201.28;10495739;28;20040;-80
2023/01/07 08:32:44;;;;;;;2.67;2.47;;;;;;;8.39;93.02;100197.94;10497297;28;20041;-83
2023/01/07 08:37:46;;;;;;;2.25;1.73;;;;;;;8.46;93.81;100200.41;10515001;28;20043;-83
2023/01/07 08:42:48;;;;;;;1.70;1.35;;;;;;;8.44;94.31;100206.56;10498142;28;20044;-83
2023/01/07 08:47:49;;;;;;;1.48;1.38;;;;;;;8.48;92.42;100198.59;10501538;28;20037;-82
2023/01/07 08:52:51;;;;;;;1.63;1.33;;;;;;;8.57;92.80;100203.66;10525813;28;20482;-84
2023/01/07 08:57:53;;;;;;;1.88;1.77;;;;;;;8.85;91.35;100192.56;10526992;28;20355;-85
2023/01/07 09:02:54;;;;;;;1.98;1.60;;;;;;;8.92;88.89;100193.31;10528374;28;20044;-83
2023/01/07 09:07:56;;;;;;;2.20;2.00;;;;;;;8.86;89.24;100191.69;10525856;28;20058;-84
2023/01/07 09:12:58;;;;;;;2.35;2.10;;;;;;;8.62;91.65;100185.22;10488269;28;20048;-81
2023/01/07 09:18:02;;;;;;;2.97;2.40;;;;;;;8.55;91.47;100187.13;10523685;28;20094;-81
2023/01/07 09:23:04;;;;;;;2.47;2.28;;;;;;;8.66;91.11;100179.00;10507673;28;20102;-81
2023/01/07 09:28:06;;;;;;;3.25;2.60;;;;;;;8.83;90.66;100174.28;10507672;28;20032;-82
2023/01/07 09:33:07;;;;;;;2.90;2.70;;;;;;;8.86;89.84;100170.72;10524067;28;20502;-82
2023/01/07 09:38:09;;;;;;;2.78;2.15;;;;;;;9.12;86.51;100172.75;10527220;28;20044;-82
2023/01/07 09:43:14;;;;;;;2.95;2.63;;;;;;;8.96;89.46;100169.63;10508357;28;20417;-81
2023/01/07 09:48:23;;;;;;;2.55;2.35;;;;;;;9.06;88.88;100163.25;10524297;28;20071;-82
2023/01/07 09:53:31;;;;;;;2.17;1.98;;;;;;;9.20;87.46;100156.81;10524529;28;20047;-81
2023/01/07 09:58:33;;;;;;;3.00;2.80;;;;;;;9.23;88.16;100154.13;10523222;28;20041;-82
2023/01/07 10:04:00;;;;;;;3.50;2.75;;;;;;;9.49;86.69;100149.09;10507736;28;20052;-82
2023/01/07 10:09:14;;;;;;;3.35;2.85;;;;;;;9.49;85.20;100138.59;10494844;23;20083;-81
2023/01/07 10:14:19;;;;;;;3.10;2.55;;;;;;;9.67;83.24;100139.03;10472913;28;20450;-82
2023/01/07 10:19:36;;;;;;;2.97;2.63;;;;;;;9.79;82.82;100133.47;10431114;28;20046;-82
2023/01/07 10:24:43;;;;;;;3.05;2.85;;;;;;;9.61;83.60;100132.19;10430985;28;20045;-82
2023/01/07 10:29:50;;;;;;;2.33;2.13;;;;;;;9.69;82.78;100124.09;10431120;28;20052;-81
2023/01/07 10:34:54;;;;;;;;;;;;;;;9.84;81.44;100121.06;10432492;28;20073;-80
2023/01/07 10:40:17;;;;;;;4.80;3.70;;;;;;;9.94;80.79;100116.41;10433766;28;19929;-81
2023/01/07 10:45:42;;;;;;;7.53;6.82;;;;;;;9.45;83.77;100113.34;10437301;28;20571;-82
2023/01/07 10:51:13;;;;;;;5.20;4.75;;;;;;;9.53;83.32;100105.28;10377943;28;20053;-80
2023/01/07 10:56:30;;;;;;;5.40;4.90;;;;;;;9.30;86.31;100098.84;10431584;28;20053;-80
2023/01/07 11:01:42;;;;;;;5.43;4.93;;;;;;;9.44;85.77;100087.16;10437286;28;20049;-81
2023/01/07 11:06:59;;;;;;;5.57;5.10;;;;;;;9.47;86.27;100073.94;10439456;28;20091;-82
2023/01/07 11:12:11;;;;;;;6.00;5.50;;;;;;;9.23;88.98;100054.47;10433881;28;20065;-82
2023/01/07 11:18:10;;;;;;;5.65;5.25;;;;;;;9.28;89.44;100040.31;10435234;28;20034;-81
2023/01/07 11:23:26;;;;;;;5.72;5.05;;;;;;;9.68;87.18;100035.75;10399219;28;20069;-81
2023/01/07 11:28:32;;;;;;;5.20;4.80;;;;;;;10.52;84.27;100028.03;10433633;28;20045;-82
2023/01/07 11:33:46;;;;;;;4.55;4.15;;;;;;;11.83;77.32;100017.41;10433203;28;20060;-82
2023/01/07 11:39:19;;;;;;;2.50;2.22;;;;;;;12.47;70.60;100014.91;10428985;28;20498;-82
2023/01/07 11:44:20;;;;;;;2.10;1.97;;;;;;;11.95;72.72;100005.53;10430575;28;20041;-82
2023/01/07 11:49:28;;;;;;;0.75;0.75;;;;;;;11.26;72.22;99995.72;10426867;28;20080;-81
2023/01/07 11:54:31;;;;;;;0.88;0.60;;;;;;;10.61;73.00;99998.81;10428525;28;20053;-82
2023/01/07 11:59:33;;;;;;;1.05;0.50;;;;;;;10.46;74.69;99997.53;10429708;28;20037;-82
2023/01/07 12:04:35;;;;;;;0.65;0.60;;;;;;;10.68;74.07;99999.47;10448365;28;20104;-82
2023/01/07 12:09:39;;;;;;;0.60;0.50;;;;;;;10.67;73.91;99990.75;10449785;28;20049;-82
2023/01/07 12:14:46;;;;;;;0.45;0.28;;;;;;;10.76;70.88;99985.19;10434728;28;20136;-81
2023/01/07 12:20:00;;;;;;;0.30;0.30;;;;;;;11.65;69.15;99981.19;10428939;28;20046;-82
2023/01/07 12:25:20;;;;;;;0.98;0.35;;;;;;;12.15;68.58;99967.91;10429942;28;20050;-80
2023/01/07 12:31:02;;;;;;;0.68;0.40;;;;;;;12.36;65.07;99961.78;10428850;28;20103;-82
2023/01/07 12:36:19;;;;;;;0.30;0.30;;;;;;;12.26;64.61;99956.03;10431078;28;20080;-82
2023/01/07 12:41:26;;;;;;;2.03;1.00;;;;;;;11.82;67.30;99955.06;10432954;28;20044;-82
2023/01/07 12:46:38;;;;;;;1.20;0.80;;;;;;;11.66;66.65;99943.41;10431942;28;20068;-82
2023/01/07 12:52:04;;;;;;;2.65;1.55;;;;;;;11.61;66.38;99940.97;10461793;28;20048;-81
2023/01/07 12:57:20;;;;;;;0.93;0.77;;;;;;;11.45;68.69;99930.13;10465843;28;20049;-81
2023/01/07 13:02:59;;;;;;;0.35;0.30;;;;;;;11.23;67.96;99922.16;10466329;28;20056;-82
2023/01/07 13:08:04;;;;;;;1.40;0.40;;;;;;;11.18;67.93;99924.09;10425979;28;20108;-83
2023/01/07 13:13:31;;;;;;;0.47;0.40;;;;;;;11.27;67.33;99925.53;10432055;28;20048;-84
2023/01/07 13:18:33;;;;;;;0.50;0.50;;;;;;;10.99;68.14;99923.06;10429362;28;20041;-83
2023/01/07 13:24:00;;;;;;;1.85;0.88;;;;;;;10.75;69.61;99922.09;10427976;28;20046;-83
2023/01/07 13:29:08;;;;;;;1.15;0.52;;;;;;;10.64;69.77;99924.25;10429583;28;20148;-84
2023/01/07 13:34:22;;;;;;;0.50;0.50;;;;;;;10.70;70.00;99909.13;10430708;28;20049;-83
2023/01/07 13:39:54;;;;;;;0.60;0.60;;;;;;;10.91;68.08;99901.41;10439426;28;20114;-83
2023/01/07 13:45:16;;;;;;;0.70;0.70;;;;;;;10.81;67.74;99904.38;10438137;28;20148;-83
2023/01/07 13:50:37;;;;;;;0.60;0.50;;;;;;;10.49;67.19;99905.47;10421052;28;20145;-83
2023/01/07 13:55:41;;;;;;;0.55;0.55;;;;;;;10.21;68.20;99908.09;10458528;28;20037;-82
2023/01/07 14:01:00;;;;;;;1.17;0.60;;;;;;;10.12;69.21;99900.50;10446682;28;20394;-83
2023/01/07 14:06:58;;;;;;;0.90;0.85;;;;;;;9.86;69.51;99891.69;10436292;28;20071;-84
2023/01/07 14:12:37;;;;;;;1.10;1.00;;;;;;;9.82;71.45;99889.19;10410578;28;20466;-84
2023/01/07 14:17:45;;;;;;;1.33;0.90;;;;;;;9.94;70.90;99893.22;10453226;28;20041;-82
2023/01/07 14:22:53;;;;;;;1.35;1.20;;;;;;;9.94;70.56;99878.31;10459986;28;20422;-83
2023/01/07 14:28:16;;;;;;;1.98;1.83;;;;;;;9.91;69.98;99875.78;10460322;28;20060;-82
2023/01/07 14:33:32;;;;;;;1.50;1.23;;;;;;;9.91;68.75;99869.69;10468911;28;20040;-82
2023/01/07 14:38:34;;;;;;;1.45;1.30;;;;;;;10.00;68.27;99870.25;10458688;28;20133;-83
2023/01/07 14:43:42;;;;;;;2.65;1.60;;;;;;;9.52;70.85;99860.38;10432825;28;20061;-83
2023/01/07 14:49:04;;;;;;;1.10;1.10;;;;;;;9.50;70.51;99848.19;10433923;28;20037;-83
2023/01/07 14:54:24;;;;;;;1.33;1.13;;;;;;;9.55;70.47;99852.41;10431705;28;20053;-81
2023/01/07 14:59:50;;;;;;;1.88;1.50;;;;;;;9.40;71.02;99852.00;10434147;28;20095;-82
2023/01/07 15:05:10;;;;;;;2.05;1.50;;;;;;;9.35;71.70;99845.16;10432927;28;20049;-82
2023/01/07 15:16:00;;;;;;;2.38;2.17;;;;;;;8.64;75.50;99839.31;10431598;28;20041;-82
2023/01/07 15:21:29;;;;;;;2.05;1.73;;;;;;;8.42;77.00;99833.78;10431111;28;20076;-82
2023/01/07 15:26:52;;;;;;;1.83;1.67;;;;;;;8.28;77.92;99831.50;10430964;28;20045;-82
2023/01/07 15:32:01;;;;;;;1.90;1.70;;;;;;;8.16;78.26;99831.81;10436126;28;20048;-82
2023/01/07 15:37:05;;;;;;;2.22;1.95;;;;;;;8.11;78.68;99836.31;10436102;28;20053;-82
2023/01/07 15:42:16;;;;;;;2.80;2.50;;;;;;;8.14;79.09;99825.72;10438662;28;20128;-82
2023/01/07 15:47:33;;;;;;;2.85;2.55;;;;;;;7.93;80.40;99835.00;10433037;28;20503;-81
2023/01/07 15:52:34;;;;;;;;;;;;;;;7.99;80.50;99820.00;10434094;28;20113;-83
2023/01/07 15:57:37;;;;;;;3.95;3.42;;;;;;;8.01;80.72;99827.78;10432954;28;19920;-81
2023/01/07 16:02:42;;;;;;;5.65;5.13;;;;;;;7.74;81.40;99827.56;10428892;28;20055;-82
2023/01/07 16:07:55;;;;;;;7.63;6.93;;;;;;;7.57;82.81;99822.75;10546874;23;20074;-84
2023/01/07 16:13:14;;;;;;;4.80;4.30;;;;;;;7.72;83.92;99818.91;10539810;28;20489;-83
2023/01/07 16:18:17;;;;;;;5.25;4.72;;;;;;;7.41;85.16;99805.66;10560993;28;20058;-84
2023/01/07 16:23:24;;;;;;;5.28;4.78;;;;;;;7.12;86.14;99800.19;10562478;28;20044;-84
2023/01/07 16:28:31;;;;;;;9.70;4.68;;;;;;;6.94;87.70;99798.84;10563805;28;20374;-83
2023/01/07 16:33:34;;;;;;;;;;;;;;;6.78;88.81;99798.31;10560978;28;20066;-84
2023/01/07 16:38:36;;;;;;;7.90;7.30;;;;;;;6.65;90.03;99782.00;10568561;28;19987;-83
2023/01/07 16:43:38;;;;;;;6.57;6.07;;;;;;;6.58;90.28;99778.66;10571853;22;20048;-74
2023/01/07 16:48:40;;;;;;;6.32;5.82;;;;;;;6.54;90.77;99787.44;10482724;28;20041;-74
2023/01/07 16:53:41;;;;;;;10.98;9.98;;;;;;;6.42;91.32;99785.09;10481862;28;20041;-74
2023/01/07 16:58:54;;;;;;;11.70;10.80;;;;;;;6.39;91.81;99771.22;10481280;28;20512;-74
2023/01/07 17:04:05;;;;;;;16.88;15.57;;;;;;;6.42;91.59;99774.63;10500098;28;20049;-75
2023/01/07 17:09:20;;;;;;;15.88;14.48;;;;;;;6.43;91.88;99759.81;10501354;28;20037;-74
2023/01/07 17:14:34;;;;;;;18.90;16.95;;;;;;;6.40;91.93;99752.91;10506984;28;20486;-75
2023/01/07 17:19:39;;;;;;;14.65;13.45;;;;;;;6.21;93.26;99743.72;10507126;28;20516;-73
2023/01/07 17:24:46;;;;;;;14.75;13.55;;;;;;;6.04;94.42;99747.47;10487828;28;20056;-74
2023/01/07 17:29:48;;;;;;;18.20;16.70;;;;;;;5.71;95.82;99738.47;10508576;28;20382;-74
2023/01/07 17:34:50;;;;;;;25.58;23.15;;;;;;;5.79;96.02;99744.38;10489069;28;20071;-75
2023/01/07 17:39:52;;;;;;;29.08;25.98;;;;;;;5.79;95.68;99733.97;10505993;28;20512;-74
2023/01/07 17:44:54;;;;;;;31.92;26.20;;;;;;;5.59;97.38;99741.28;10488232;28;20127;-74
2023/01/07 17:49:55;;;;;;;29.02;25.55;;;;;;;5.65;96.28;99732.47;10507953;28;20091;-74
2023/01/07 17:54:57;;;;;;;24.90;22.33;;;;;;;5.61;96.71;99729.06;10505258;28;20040;-73
2023/01/07 17:59:59;;;;;;;25.70;23.38;;;;;;;5.41;97.54;99731.16;10506177;28;20044;-75
2023/01/07 18:05:01;;;;;;;20.00;18.10;;;;;;;5.35;97.43;99719.03;10487495;28;20099;-75
2023/01/07 18:10:02;;;;;;;20.10;18.13;;;;;;;5.02;99.70;99726.50;10507417;28;20040;-75
2023/01/07 18:15:30;;;;;;;18.83;17.23;;;;;;;4.83;99.58;99719.81;10475412;28;20044;-75
2023/01/07 18:20:33;;;;;;;20.92;19.02;;;;;;;5.12;99.62;99714.19;10507222;28;20115;-74
2023/01/07 18:25:34;;;;;;;25.15;21.35;;;;;;;5.04;99.42;99711.69;10505986;28;20398;-75
2023/01/07 18:30:37;;;;;;;23.15;20.77;;;;;;;4.86;99.35;99713.69;10509510;28;20107;-74
2023/01/07 18:35:39;;;;;;;21.95;19.45;;;;;;;4.77;100.00;99712.94;10491437;28;20051;-74
2023/01/07 18:40:42;;;;;;;24.27;21.73;;;;;;;4.75;100.00;99711.25;10504952;28;20044;-74
2023/01/07 18:45:45;;;;;;;22.10;20.13;;;;;;;4.69;100.00;99700.91;10503926;28;20132;-73
2023/01/07 18:50:48;;;;;;;22.48;20.23;;;;;;;4.73;99.14;99707.78;10503335;28;20067;-74
2023/01/07 18:55:57;;;;;;;26.88;20.92;;;;;;;4.45;100.00;99708.16;10504953;28;20496;-73
2023/01/07 19:01:03;;;;;;;22.23;20.17;;;;;;;4.35;100.00;99706.53;10503308;28;20033;-74
2023/01/07 19:06:10;;;;;;;28.48;23.00;;;;;;;4.11;100.00;99705.06;10504609;28;20041;-74
2023/01/07 19:11:13;;;;;;;25.83;23.23;;;;;;;4.31;100.00;99702.25;10487252;28;20131;-74
2023/01/07 19:16:14;;;;;;;23.75;19.40;;;;;;;4.11;100.00;99702.47;10489757;28;20071;-74
2023/01/07 19:21:16;;;;;;;20.30;18.60;;;;;;;4.15;100.00;99692.88;10507823;28;20045;-74
2023/01/07 19:26:19;;;;;;;17.15;15.77;;;;;;;4.18;100.00;99690.25;10492683;28;20036;-74
2023/01/07 19:31:21;;;;;;;18.80;17.35;;;;;;;4.22;100.00;99692.81;10485028;28;20077;-73
2023/01/07 19:36:23;;;;;;;19.48;17.73;;;;;;;3.98;100.00;99695.66;10484308;28;20048;-74
2023/01/07 19:41:25;;;;;;;17.65;16.17;;;;;;;4.05;100.00;99699.94;10505286;28;20051;-75
2023/01/07 19:46:27;;;;;;;18.50;16.90;;;;;;;4.08;100.00;99701.66;10486615;28;20524;-74
2023/01/07 19:51:29;;;;;;;19.27;17.77;;;;;;;3.70;100.00;99695.09;10502895;28;20079;-74
2023/01/07 19:56:31;;;;;;;19.42;17.67;;;;;;;3.86;100.00;99673.28;10505167;28;20059;-75
2023/01/07 20:01:33;;;;;;;17.15;15.75;;;;;;;3.73;100.00;99680.31;10506865;28;20043;-75
2023/01/07 20:06:40;;;;;;;21.75;19.75;;;;;;;3.71;100.00;99668.22;10502897;28;20048;-75
2023/01/07 20:11:41;;;;;;;18.27;16.48;;;;;;;3.51;100.00;99660.63;10502879;28;20386;-74
2023/01/07 20:16:43;;;;;;;18.08;16.13;;;;;;;3.41;100.00;99645.97;10502410;28;20044;-74
2023/01/07 20:21:45;;;;;;;17.92;16.48;;;;;;;3.32;100.00;99643.44;10503191;28;20040;-76
2023/01/07 20:26:47;;;;;;;19.35;17.73;;;;;;;3.27;100.00;99649.53;10483853;28;20048;-74
2023/01/07 20:31:49;;;;;;;18.83;17.17;;;;;;;3.63;100.00;99637.13;10482563;28;20561;-74
2023/01/07 20:36:50;;;;;;;16.85;15.27;;;;;;;3.32;100.00;99627.84;10500041;28;20040;-74
2023/01/07 20:41:52;;;;;;;18.27;16.77;;;;;;;3.43;100.00;99624.28;10500647;28;20087;-73
2023/01/07 20:46:54;;;;;;;18.02;16.25;;;;;;;3.30;100.00;99627.88;10493274;28;20044;-74
2023/01/07 20:51:56;;;;;;;18.50;17.00;;;;;;;3.31;100.00;99627.00;10517290;28;20041;-72
2023/01/07 20:56:57;;;;;;;15.98;14.68;;;;;;;3.24;100.00;99628.81;10496919;28;20059;-75
2023/01/07 21:01:59;;;;;;;18.27;16.67;;;;;;;3.27;100.00;99628.75;10514589;28;20037;-73
2023/01/07 21:07:01;;;;;;;19.48;17.85;;;;;;;3.04;100.00;99613.38;10501130;28;20056;-74
2023/01/07 21:12:03;;;;;;;21.83;19.73;;;;;;;2.96;100.00;99609.97;10516070;28;20044;-75
2023/01/07 21:17:05;;;;;;;20.02;18.05;;;;;;;3.02;100.00;99598.69;10496487;28;20222;-73
2023/01/07 21:22:07;;;;;;;19.48;17.67;;;;;;;2.95;100.00;99587.47;10514012;28;20045;-74
2023/01/07 21:27:08;;;;;;;18.33;16.60;;;;;;;3.04;100.00;99581.34;10498528;28;20105;-73
2023/01/07 21:32:10;;;;;;;17.38;15.82;;;;;;;2.93;100.00;99585.78;10513546;28;20041;-74
2023/01/07 21:37:12;;;;;;;17.38;15.95;;;;;;;2.72;100.00;99571.25;10513712;28;20055;-74
2023/01/07 21:42:14;;;;;;;20.90;17.10;;;;;;;2.85;100.00;99583.25;10494703;28;20052;-74
2023/01/07 21:47:15;;;;;;;16.92;15.55;;;;;;;2.67;100.00;99565.22;10494127;28;20131;-74
2023/01/07 21:52:18;;;;;;;16.73;15.32;;;;;;;2.73;100.00;99559.97;10516918;28;20063;-74
2023/01/07 21:57:19;;;;;;;17.48;15.98;;;;;;;2.89;100.00;99563.31;10508601;28;20444;-74
2023/01/07 22:02:21;;;;;;;19.25;17.05;;;;;;;2.94;100.00;99557.22;10487430;28;20050;-74
2023/01/07 22:07:23;;;;;;;17.85;16.35;;;;;;;3.04;100.00;99553.66;10532279;22;20051;-79
2023/01/07 22:12:25;;;;;;;17.83;16.40;;;;;;;3.07;100.00;99555.38;10529719;28;20033;-79
2023/01/07 22:17:26;;;;;;;16.73;15.32;;;;;;;3.06;100.00;99555.41;10512264;28;20096;-79
2023/01/07 22:22:28;;;;;;;17.42;15.93;;;;;;;3.19;100.00;99552.66;10525830;28;20112;-79
2023/01/07 22:27:29;;;;;;;15.55;14.35;;;;;;;3.09;100.00;99550.16;10511183;28;20051;-79
2023/01/07 22:32:31;;;;;;;17.33;15.80;;;;;;;3.22;100.00;99544.81;10505896;28;20048;-79
2023/01/07 22:37:33;;;;;;;16.08;14.88;;;;;;;3.02;100.00;99534.66;10525662;28;20056;-79
2023/01/07 22:42:45;;;;;;;15.68;14.27;;;;;;;3.08;100.00;99538.06;10524369;28;20071;-79
2023/01/07 22:47:49;;;;;;;14.48;13.25;;;;;;;2.90;100.00;99528.69;10525320;28;20044;-79
2023/01/07 22:52:51;;;;;;;14.35;13.25;;;;;;;2.88;100.00;99525.22;10506406;28;20036;-79
2023/01/07 22:57:53;;;;;;;13.98;12.98;;;;;;;3.04;100.00;99514.69;10502577;28;20036;-80
2023/01/07 23:02:54;;;;;;;15.10;13.80;;;;;;;3.24;100.00;99522.31;10502830;28;20402;-79
2023/01/07 23:07:57;;;;;;;15.65;14.45;;;;;;;3.24;100.00;99509.31;10495413;28;20150;-80
2023/01/07 23:12:58;;;;;;;13.73;12.52;;;;;;;3.33;100.00;99508.38;10520957;28;20044;-80
2023/01/07 23:18:00;;;;;;;15.18;13.95;;;;;;;3.19;100.00;99512.84;10503384;28;20504;-81
2023/01/07 23:23:02;;;;;;;13.60;12.50;;;;;;;3.41;100.00;99513.44;10537564;28;20078;-80
2023/01/07 23:28:03;;;;;;;14.40;13.30;;;;;;;3.20;100.00;99507.63;10516949;28;20061;-79
2023/01/07 23:33:05;;;;;;;14.73;13.43;;;;;;;3.50;100.00;99503.84;10535211;28;20444;-80
2023/01/07 23:38:07;;;;;;;15.70;14.32;;;;;;;3.61;100.00;99498.50;10524063;28;20109;-80
2023/01/07 23:43:09;;;;;;;15.02;13.75;;;;;;;3.81;100.00;99480.06;10535801;28;20486;-80
2023/01/07 23:48:10;;;;;;;13.80;12.65;;;;;;;3.86;100.00;99475.66;10521693;28;20060;-80